createdAt,value
2019-05-26T00:00:49.274Z,8.27
2019-05-26T00:05:50.824Z,8.27
2019-05-26T00:10:52.135Z,8.97
2019-05-26T00:15:53.484Z,8.97
2019-05-26T00:20:54.797Z,9.00
2019-05-26T00:25:56.119Z,7.83
2019-05-26T00:30:57.433Z,8.20
2019-05-26T00:35:58.826Z,7.80
2019-05-26T00:41:00.132Z,7.83
2019-05-26T00:46:01.466Z,7.53
2019-05-26T00:51:02.785Z,6.90
2019-05-26T00:56:04.137Z,7.43
2019-05-26T01:01:05.520Z,7.77
2019-05-26T01:06:06.910Z,7.30
2019-05-26T01:11:08.329Z,8.20
2019-05-26T01:16:09.662Z,7.17
2019-05-26T01:21:11.017Z,7.77
2019-05-26T01:26:12.431Z,7.07
2019-05-26T01:31:13.850Z,6.60
2019-05-26T01:36:15.245Z,6.63
2019-05-26T01:41:16.533Z,6.20
2019-05-26T01:46:18.617Z,7.07
2019-05-26T01:51:20.668Z,7.03
2019-05-26T01:56:22.010Z,6.83
2019-05-26T02:01:23.325Z,6.37
2019-05-26T02:06:24.624Z,6.40
2019-05-26T02:11:25.945Z,6.53
2019-05-26T02:16:27.270Z,5.37
2019-05-26T02:21:28.623Z,5.70
2019-05-26T02:26:29.965Z,5.93
2019-05-26T02:31:32.018Z,4.80
2019-05-26T02:36:33.346Z,5.03
2019-05-26T02:41:34.703Z,5.03
2019-05-26T02:46:36.103Z,4.60
2019-05-26T02:51:37.459Z,4.40
2019-05-26T02:56:38.848Z,4.63
2019-05-26T03:02:01.287Z,4.23
2019-05-26T03:06:42.247Z,4.07
2019-05-26T03:11:43.624Z,3.83
2019-05-26T03:16:44.974Z,4.33
2019-05-26T03:21:46.344Z,4.27
2019-05-26T03:26:47.672Z,4.23
2019-05-26T03:31:49.074Z,4.63
2019-05-26T03:36:50.402Z,3.70
2019-05-26T03:41:52.860Z,3.70
2019-05-26T03:46:54.554Z,3.43
2019-05-26T03:51:56.629Z,3.37
2019-05-26T03:56:57.949Z,3.27
2019-05-26T04:01:59.297Z,3.97
2019-05-26T04:07:00.624Z,3.37
2019-05-26T04:12:02.698Z,3.23
2019-05-26T04:17:04.766Z,3.33
2019-05-26T04:22:06.834Z,3.50
2019-05-26T04:27:08.292Z,3.40
2019-05-26T04:32:09.635Z,3.20
2019-05-26T04:37:11.018Z,3.17
2019-05-26T04:42:12.321Z,3.07
2019-05-26T04:47:14.385Z,3.60
2019-05-26T04:52:15.718Z,3.30
2019-05-26T04:57:17.049Z,3.20
2019-05-26T05:02:18.386Z,3.20
2019-05-26T05:07:19.710Z,3.00
2019-05-26T05:12:21.057Z,2.80
2019-05-26T05:17:22.536Z,2.50
2019-05-26T05:22:23.866Z,2.83
2019-05-26T05:27:25.208Z,2.30
2019-05-26T05:32:27.237Z,2.33
2019-05-26T05:37:28.581Z,2.37
2019-05-26T05:42:29.875Z,2.47
2019-05-26T05:47:31.272Z,2.47
2019-05-26T05:52:32.581Z,3.00
2019-05-26T05:57:33.917Z,2.13
2019-05-26T06:02:35.269Z,2.77
2019-05-26T06:07:36.597Z,2.37
2019-05-26T06:12:37.923Z,2.47
2019-05-26T06:17:39.230Z,2.17
2019-05-26T06:22:40.583Z,2.87
2019-05-26T06:27:41.949Z,3.10
2019-05-26T06:32:43.349Z,3.20
2019-05-26T06:37:44.682Z,3.70
2019-05-26T06:42:46.034Z,3.17
2019-05-26T06:47:47.349Z,3.80
2019-05-26T06:52:49.483Z,2.97
2019-05-26T06:57:50.797Z,3.73
2019-05-26T07:03:00.782Z,3.37
2019-05-26T07:08:02.159Z,3.90
2019-05-26T07:13:03.569Z,3.30
2019-05-26T07:18:04.916Z,3.87
2019-05-26T07:23:07.595Z,3.40
2019-05-26T07:28:07.652Z,3.73
2019-05-26T07:33:09.066Z,3.53
2019-05-26T07:38:11.213Z,4.10
2019-05-26T07:43:12.557Z,3.93
2019-05-26T07:48:14.042Z,3.90
2019-05-26T07:53:15.407Z,3.50
2019-05-26T07:58:16.713Z,3.90
2019-05-26T08:03:18.029Z,3.40
2019-05-26T08:08:19.361Z,3.57
2019-05-26T08:13:20.682Z,3.83
2019-05-26T08:18:22.040Z,3.97
2019-05-26T08:23:23.374Z,3.50
2019-05-26T08:28:24.717Z,3.27
2019-05-26T08:33:26.037Z,3.77
2019-05-26T08:38:27.415Z,3.80
2019-05-26T08:43:28.712Z,3.43
2019-05-26T08:48:30.108Z,3.53
2019-05-26T08:53:31.505Z,3.10
2019-05-26T08:58:32.849Z,3.60
2019-05-26T09:03:34.159Z,3.73
2019-05-26T09:08:35.466Z,3.53
2019-05-26T09:13:36.786Z,3.33
2019-05-26T09:18:38.104Z,2.27
2019-05-26T09:23:39.427Z,3.20
2019-05-26T09:28:40.805Z,3.20
2019-05-26T09:33:42.139Z,2.60
2019-05-26T09:38:43.460Z,2.20
2019-05-26T09:43:44.831Z,2.10
2019-05-26T09:48:46.155Z,2.27
2019-05-26T09:54:00.887Z,1.97
2019-05-26T09:58:48.899Z,2.07
2019-05-26T10:03:50.244Z,2.30
2019-05-26T10:08:51.624Z,1.93
2019-05-26T10:13:52.970Z,2.10
2019-05-26T10:18:54.309Z,2.10
2019-05-26T10:23:55.644Z,2.07
2019-05-26T10:29:00.368Z,1.73
2019-05-26T10:33:58.326Z,2.00
2019-05-26T10:38:59.662Z,1.60
2019-05-26T10:44:01.025Z,2.00
2019-05-26T10:49:03.109Z,1.83
2019-05-26T10:54:04.477Z,1.60
2019-05-26T10:59:06.616Z,1.77
2019-05-26T11:04:07.946Z,1.40
2019-05-26T11:09:09.245Z,1.60
2019-05-26T11:14:10.555Z,1.30
2019-05-26T11:19:12.617Z,1.27
2019-05-26T11:24:13.968Z,1.80
2019-05-26T11:29:15.293Z,1.70
2019-05-26T11:34:16.629Z,1.60
2019-05-26T11:39:18.695Z,1.77
2019-05-26T11:44:19.994Z,1.30
2019-05-26T11:49:21.376Z,1.30
2019-05-26T11:54:22.695Z,1.63
2019-05-26T11:59:24.053Z,1.30
2019-05-26T12:04:25.386Z,1.20
2019-05-26T12:09:26.778Z,1.77
2019-05-26T12:14:34.726Z,1.63
2019-05-26T12:19:29.532Z,1.43
2019-05-26T12:24:30.829Z,1.47
2019-05-26T12:29:32.151Z,1.57
2019-05-26T12:34:33.522Z,1.40
2019-05-26T12:39:34.926Z,1.30
2019-05-26T12:44:48.632Z,1.20
2019-05-26T12:49:37.699Z,1.00
2019-05-26T12:54:39.078Z,1.27
2019-05-26T12:59:41.144Z,1.37
2019-05-26T13:04:42.476Z,1.20
2019-05-26T13:09:43.807Z,1.10
2019-05-26T13:14:45.141Z,1.60
2019-05-26T13:19:46.461Z,1.50
2019-05-26T13:24:47.749Z,1.20
2019-05-26T13:29:49.142Z,1.57
2019-05-26T13:34:50.506Z,1.50
2019-05-26T13:39:51.812Z,1.63
2019-05-26T13:44:53.177Z,1.30
2019-05-26T13:49:54.517Z,1.30
2019-05-26T13:54:56.579Z,1.50
2019-05-26T13:59:57.912Z,1.63
2019-05-26T14:04:59.236Z,1.77
2019-05-26T14:10:00.613Z,1.57
2019-05-26T14:15:01.993Z,1.87
2019-05-26T14:20:03.358Z,1.60
2019-05-26T14:25:04.734Z,1.60
2019-05-26T14:30:06.170Z,1.40
2019-05-26T14:35:07.550Z,2.03
2019-05-26T14:40:08.837Z,1.37
2019-05-26T14:45:10.159Z,1.60
2019-05-26T14:50:11.521Z,1.30
2019-05-26T14:55:12.853Z,1.40
2019-05-26T15:00:14.187Z,1.50
2019-05-26T15:05:15.496Z,1.43
2019-05-26T15:10:17.573Z,1.33
2019-05-26T15:15:19.245Z,1.30
2019-05-26T15:20:20.578Z,1.00
2019-05-26T15:25:21.906Z,1.53
2019-05-26T15:30:23.281Z,1.90
2019-05-26T15:40:39.264Z,1.63
2019-05-26T15:45:51.917Z,1.60
2019-05-26T15:51:05.819Z,1.70
2019-05-26T15:56:10.639Z,1.60
2019-05-26T16:01:17.649Z,1.40
2019-05-26T16:06:20.668Z,1.60
2019-05-26T16:11:22.516Z,1.90
2019-05-26T16:16:40.095Z,1.43
2019-05-26T16:21:29.018Z,1.40
2019-05-26T16:26:33.959Z,1.80
2019-05-26T16:31:36.651Z,1.53
2019-05-26T16:36:50.729Z,1.70
2019-05-26T16:41:53.669Z,1.63
2019-05-26T16:46:57.201Z,1.60
2019-05-26T16:51:59.880Z,1.60
2019-05-26T16:57:03.720Z,1.80
2019-05-26T17:02:06.456Z,1.70
2019-05-26T17:07:08.570Z,1.40
2019-05-26T17:12:10.560Z,1.77
2019-05-26T17:17:16.739Z,1.97
2019-05-26T17:22:22.502Z,1.50
2019-05-26T17:27:25.010Z,1.70
2019-05-26T17:32:27.897Z,1.60
2019-05-26T17:37:29.615Z,1.70
2019-05-26T17:42:32.335Z,1.40
2019-05-26T17:47:34.384Z,1.90
2019-05-26T17:52:35.780Z,1.70
2019-05-26T17:57:45.225Z,1.50
2019-05-26T18:03:04.216Z,1.33
2019-05-26T18:08:06.274Z,1.60
2019-05-26T18:13:07.582Z,1.97
2019-05-26T18:18:16.517Z,1.97
2019-05-26T18:23:17.871Z,2.00
2019-05-26T18:28:19.185Z,1.63
2019-05-26T18:33:20.531Z,1.90
2019-05-26T18:38:21.849Z,1.40
2019-05-26T18:43:23.950Z,1.87
2019-05-26T18:48:34.569Z,1.70
2019-05-26T18:53:36.047Z,1.77
2019-05-26T18:58:37.462Z,1.70
2019-05-26T19:03:39.553Z,1.47
2019-05-26T19:08:40.911Z,2.60
2019-05-26T19:13:42.356Z,2.87
2019-05-26T19:18:44.425Z,2.40
2019-05-26T19:23:46.321Z,3.33
2019-05-26T19:28:48.519Z,2.37
2019-05-26T19:33:51.258Z,2.03
2019-05-26T19:38:53.205Z,2.17
2019-05-26T19:43:54.508Z,2.20
2019-05-26T19:48:55.836Z,3.67
2019-05-26T19:53:57.237Z,1.83
2019-05-26T19:58:58.613Z,1.90
2019-05-26T20:04:00.029Z,2.40
2019-05-26T20:09:01.401Z,2.40
2019-05-26T20:14:02.838Z,2.40
2019-05-26T20:19:04.927Z,2.33
2019-05-26T20:24:07.051Z,2.20
2019-05-26T20:29:08.377Z,2.53
2019-05-26T20:34:10.483Z,3.03
2019-05-26T20:39:11.827Z,2.60
2019-05-26T20:44:13.191Z,2.47
2019-05-26T20:49:14.517Z,3.30
2019-05-26T20:54:15.853Z,2.43
2019-05-26T20:59:17.322Z,2.63
2019-05-26T21:04:18.841Z,3.17
2019-05-26T21:09:20.962Z,2.60
2019-05-26T21:14:22.333Z,3.10
2019-05-26T21:19:23.668Z,2.93
2019-05-26T21:24:25.774Z,3.20
2019-05-26T21:29:27.150Z,2.80
2019-05-26T21:34:28.513Z,3.20
2019-05-26T21:39:29.881Z,2.80
2019-05-26T21:44:31.211Z,2.67
2019-05-26T21:49:33.241Z,2.60
2019-05-26T21:54:34.564Z,2.67
2019-05-26T21:59:35.901Z,2.33
2019-05-26T22:04:37.205Z,2.50
2019-05-26T22:09:38.534Z,3.07
2019-05-26T22:14:40.586Z,3.23
2019-05-26T22:19:41.897Z,3.33
2019-05-26T22:24:43.220Z,2.60
2019-05-26T22:29:44.625Z,2.60
2019-05-26T22:34:46.659Z,2.67
2019-05-26T22:39:47.995Z,2.20
2019-05-26T22:44:49.310Z,2.70
2019-05-26T22:49:51.352Z,2.50
2019-05-26T22:54:52.695Z,2.03
2019-05-26T22:59:54.041Z,2.37
2019-05-26T23:04:57.458Z,2.50
2019-05-26T23:09:58.757Z,2.07
2019-05-26T23:15:00.144Z,2.63
2019-05-26T23:20:01.457Z,2.60
2019-05-26T23:25:02.802Z,2.10
2019-05-26T23:30:04.842Z,2.57
2019-05-26T23:35:06.166Z,2.17
2019-05-26T23:40:10.927Z,2.30
2019-05-26T23:45:12.258Z,2.57
2019-05-26T23:50:13.604Z,2.80
2019-05-26T23:55:15.669Z,2.60
